EDDR/SCN METAR and TAF weather

Enter ICAO airport designator
Station Type Date Time Source
EDDR METAR 2019/04/25 21:50 UTC NOAA

EDDR 252150Z VRB02KT CAVOK 08/07 Q1010


Station Type Date Time Source
EDDR Decoded METAR 2019/04/25 21:50 UTC NOAA

Saarbruecken / Ensheim, Germany (EDDR) 49-13N 007-07E 320M
Apr 25, 2019 - 05:50 PM EDT / 2019.04.25 2150 UTC
Wind: Variable at 2 MPH (2 KT):0
Visibility: greater than 7 mile(s):0
Temperature: 46 F (8 C)
Dew Point: 44 F (7 C)
Relative Humidity: 93%
Pressure (altimeter): 29.83 in. Hg (1010 hPa)
ob: EDDR 252150Z VRB02KT CAVOK 08/07 Q1010
cycle: 22

Station Type Date Time Source
EDDR TAF 2019/04/25 18:27 UTC NOAA

TAF EDDR 251700Z 2518/2618 25008KT 9999 SCT030 PROB30
TEMPO 2521/2608 4000 RA BR BKN007 PROB30
TEMPO 2611/2617 SHRA BKN020CB

Example: see airport list